createdAt,value
2022-10-28T00:01:28.857Z,15.40
2022-10-28T00:03:59.313Z,15.00
2022-10-28T00:06:33.277Z,14.20
2022-10-28T00:09:04.592Z,14.60
2022-10-28T00:11:36.355Z,14.40
2022-10-28T00:14:07.362Z,13.80
2022-10-28T00:16:37.890Z,15.30
2022-10-28T00:19:07.685Z,15.50
2022-10-28T00:21:37.394Z,16.40
2022-10-28T00:24:06.946Z,16.70
2022-10-28T00:26:36.852Z,16.80
2022-10-28T00:29:14.442Z,15.40
2022-10-28T00:31:43.136Z,13.80
2022-10-28T00:34:17.527Z,15.40
2022-10-28T00:36:47.560Z,14.60
2022-10-28T00:39:19.313Z,14.40
2022-10-28T00:41:50.404Z,14.10
2022-10-28T00:44:41.294Z,14.90
2022-10-28T00:47:38.581Z,13.90
2022-10-28T00:50:26.758Z,13.20
2022-10-28T00:53:02.110Z,14.00
2022-10-28T00:55:31.985Z,15.20
2022-10-28T00:58:02.848Z,14.70
2022-10-28T01:00:31.945Z,15.30
2022-10-28T01:03:00.536Z,15.10
2022-10-28T01:05:31.656Z,14.10
2022-10-28T01:08:02.090Z,13.30
2022-10-28T01:10:44.136Z,13.90
2022-10-28T01:13:52.723Z,14.00
2022-10-28T01:17:13.538Z,13.80
2022-10-28T01:20:00.243Z,13.80
2022-10-28T01:22:41.514Z,14.50
2022-10-28T01:25:54.338Z,13.70
2022-10-28T01:28:28.211Z,11.80
2022-10-28T01:31:27.203Z,12.60
2022-10-28T01:34:39.962Z,12.50
2022-10-28T01:37:34.065Z,12.30
2022-10-28T01:40:27.111Z,11.90
2022-10-28T01:43:25.282Z,12.40
2022-10-28T01:46:08.506Z,12.00
2022-10-28T01:48:53.271Z,12.10
2022-10-28T01:51:35.881Z,12.10
2022-10-28T01:54:07.746Z,11.90
2022-10-28T01:56:41.036Z,11.40
2022-10-28T01:59:18.010Z,11.90
2022-10-28T02:01:46.275Z,11.20
2022-10-28T02:04:15.591Z,11.90
2022-10-28T02:06:48.217Z,10.50
2022-10-28T02:09:47.171Z,10.90
2022-10-28T02:12:26.711Z,11.50
2022-10-28T02:15:16.906Z,11.20
2022-10-28T02:17:57.551Z,11.90
2022-10-28T02:20:31.878Z,11.60
2022-10-28T02:23:33.960Z,10.80
2022-10-28T02:26:22.813Z,11.90
2022-10-28T02:29:20.185Z,11.50
2022-10-28T02:31:53.877Z,12.40
2022-10-28T02:34:27.688Z,12.50
2022-10-28T02:36:59.847Z,11.30
2022-10-28T02:39:36.748Z,10.60
2022-10-28T02:42:24.314Z,10.50
2022-10-28T02:45:01.067Z,11.00
2022-10-28T02:47:34.010Z,11.40
2022-10-28T02:50:07.818Z,10.30
2022-10-28T02:52:36.764Z,9.40
2022-10-28T02:55:06.678Z,9.20
2022-10-28T02:57:39.504Z,10.10
2022-10-28T03:00:11.482Z,9.80
2022-10-28T03:02:39.596Z,10.10
2022-10-28T03:05:08.265Z,10.00
2022-10-28T03:07:36.301Z,10.00
2022-10-28T03:10:04.893Z,9.50
2022-10-28T03:12:33.715Z,8.70
2022-10-28T03:15:03.284Z,9.70
2022-10-28T03:17:31.777Z,8.80
2022-10-28T03:20:00.045Z,8.70
2022-10-28T03:22:28.209Z,9.00
2022-10-28T03:24:56.278Z,10.00
2022-10-28T03:27:25.698Z,11.00
2022-10-28T03:29:53.922Z,9.50
2022-10-28T03:34:55.141Z,10.30
2022-10-28T03:37:23.258Z,10.00
2022-10-28T03:39:51.373Z,9.30
2022-10-28T03:42:20.271Z,10.10
2022-10-28T03:44:48.227Z,10.60
2022-10-28T03:47:19.065Z,11.20
2022-10-28T03:49:47.248Z,10.70
2022-10-28T03:52:15.242Z,10.70
2022-10-28T03:54:43.390Z,10.50
2022-10-28T03:57:14.342Z,11.40
2022-10-28T03:59:42.401Z,11.30
2022-10-28T04:02:11.213Z,10.10
2022-10-28T04:04:39.673Z,9.90
2022-10-28T04:07:07.743Z,9.80
2022-10-28T04:09:35.909Z,9.00
2022-10-28T04:12:08.204Z,11.00
2022-10-28T04:14:36.259Z,11.40
2022-10-28T04:17:04.424Z,11.10
2022-10-28T04:19:35.060Z,11.20
2022-10-28T04:22:03.163Z,10.00
2022-10-28T04:24:31.411Z,9.50
2022-10-28T04:26:59.691Z,10.50
2022-10-28T04:29:27.830Z,10.40
2022-10-28T04:31:56.003Z,11.60
2022-10-28T04:34:24.167Z,9.00
2022-10-28T04:36:52.664Z,10.10
2022-10-28T04:39:21.464Z,9.50
2022-10-28T04:41:49.818Z,10.90
2022-10-28T04:44:18.598Z,10.80
2022-10-28T04:46:46.890Z,10.30
2022-10-28T04:49:15.062Z,10.50
2022-10-28T04:51:43.283Z,11.20
2022-10-28T04:54:12.372Z,10.50
2022-10-28T04:56:40.398Z,11.20
2022-10-28T04:59:08.429Z,11.10
2022-10-28T05:01:37.391Z,10.90
2022-10-28T05:04:06.272Z,12.00
2022-10-28T05:06:34.322Z,11.50
2022-10-28T05:09:06.802Z,11.90
2022-10-28T05:11:34.949Z,9.80
2022-10-28T05:14:03.874Z,9.20
2022-10-28T05:16:32.126Z,11.00
2022-10-28T05:19:00.331Z,10.10
2022-10-28T05:21:28.705Z,10.30
2022-10-28T05:23:57.400Z,9.00
2022-10-28T05:26:25.558Z,9.10
2022-10-28T05:28:53.703Z,8.90
2022-10-28T05:31:22.105Z,9.30
2022-10-28T05:33:57.651Z,9.70
2022-10-28T05:36:31.648Z,9.50
2022-10-28T05:39:02.505Z,10.00
2022-10-28T05:41:34.039Z,9.50
2022-10-28T05:44:04.584Z,9.30
2022-10-28T05:46:32.861Z,9.90
2022-10-28T05:49:01.026Z,9.50
2022-10-28T05:51:29.106Z,10.10
2022-10-28T05:53:58.739Z,10.70
2022-10-28T05:56:27.408Z,10.80
2022-10-28T05:58:58.156Z,10.10
2022-10-28T06:01:26.606Z,9.70
2022-10-28T06:03:55.074Z,10.20
2022-10-28T06:06:23.378Z,9.70
2022-10-28T06:08:51.543Z,9.20
2022-10-28T06:11:18.503Z,10.20
2022-10-28T06:13:47.384Z,10.20
2022-10-28T06:16:16.176Z,11.00
2022-10-28T06:18:44.545Z,10.40
2022-10-28T06:21:13.342Z,10.70
2022-10-28T06:23:41.391Z,9.60
2022-10-28T06:26:09.696Z,9.40
2022-10-28T06:28:37.974Z,10.00
2022-10-28T06:31:07.968Z,10.40
2022-10-28T06:33:36.159Z,10.20
2022-10-28T06:36:05.350Z,10.30
2022-10-28T06:38:33.536Z,10.40
2022-10-28T06:41:45.154Z,10.70
2022-10-28T06:44:13.420Z,10.70
2022-10-28T06:46:43.100Z,10.60
2022-10-28T06:49:11.305Z,11.90
2022-10-28T06:51:39.460Z,12.60
2022-10-28T06:54:07.626Z,13.00
2022-10-28T06:56:35.914Z,12.20
2022-10-28T06:59:04.095Z,11.30
2022-10-28T07:01:32.389Z,12.30
2022-10-28T07:04:01.701Z,11.20
2022-10-28T07:06:29.843Z,11.10
2022-10-28T07:08:58.022Z,11.40
2022-10-28T07:11:26.342Z,12.70
2022-10-28T07:13:54.482Z,11.50
2022-10-28T07:16:22.660Z,11.50
2022-10-28T07:18:50.917Z,12.10
2022-10-28T07:21:21.971Z,11.90
2022-10-28T07:23:50.332Z,12.10
2022-10-28T07:26:18.425Z,11.20
2022-10-28T07:28:46.708Z,10.30
2022-10-28T07:31:14.880Z,10.40
2022-10-28T07:33:43.256Z,9.80
2022-10-28T07:36:12.239Z,9.70
2022-10-28T07:38:40.743Z,9.80
2022-10-28T07:41:10.734Z,9.50
2022-10-28T07:43:39.619Z,9.70
2022-10-28T07:46:08.008Z,9.50
2022-10-28T07:48:37.613Z,8.90
2022-10-28T07:51:08.303Z,8.10
2022-10-28T07:53:37.428Z,8.10
2022-10-28T07:56:13.914Z,8.60
2022-10-28T07:58:44.082Z,8.50
2022-10-28T08:01:15.367Z,8.70
2022-10-28T08:03:44.144Z,8.70
2022-10-28T08:06:18.817Z,8.40
2022-10-28T08:08:49.101Z,8.30
2022-10-28T08:11:19.402Z,7.90
2022-10-28T08:13:47.593Z,7.50
2022-10-28T08:16:16.861Z,7.10
2022-10-28T08:18:46.118Z,6.80
2022-10-28T08:21:15.538Z,6.90
2022-10-28T08:23:47.093Z,6.90
2022-10-28T08:26:17.035Z,6.40
2022-10-28T08:28:45.090Z,6.80
2022-10-28T08:31:13.892Z,6.90
2022-10-28T08:33:47.015Z,6.70
2022-10-28T08:36:16.898Z,6.50
2022-10-28T08:38:46.816Z,5.30
2022-10-28T08:41:24.178Z,5.80
2022-10-28T08:43:58.169Z,6.20
2022-10-28T08:47:04.398Z,6.10
2022-10-28T08:49:39.530Z,5.00
2022-10-28T08:52:27.763Z,4.50
2022-10-28T08:55:04.857Z,4.00
2022-10-28T08:57:57.805Z,3.20
2022-10-28T09:00:29.739Z,3.50
2022-10-28T09:03:13.623Z,2.90
2022-10-28T09:05:48.362Z,2.80
2022-10-28T09:08:26.361Z,2.60
2022-10-28T09:11:13.769Z,3.00
2022-10-28T09:14:01.890Z,2.70
2022-10-28T09:16:48.355Z,2.80
2022-10-28T09:19:22.576Z,2.80
2022-10-28T09:22:04.858Z,2.50
2022-10-28T09:24:49.657Z,2.40
2022-10-28T09:27:52.679Z,2.60
2022-10-28T09:30:49.735Z,2.50
2022-10-28T09:33:55.295Z,2.30
2022-10-28T09:36:46.507Z,2.70
2022-10-28T09:39:23.898Z,2.60
2022-10-28T09:41:59.750Z,2.20
2022-10-28T09:44:43.688Z,2.50
2022-10-28T09:47:29.314Z,2.60
2022-10-28T09:50:01.752Z,2.50
2022-10-28T09:53:01.257Z,2.30
2022-10-28T09:55:29.728Z,3.20
2022-10-28T09:57:58.013Z,2.90
2022-10-28T10:00:26.734Z,2.30
2022-10-28T10:03:00.172Z,2.60
2022-10-28T10:05:31.398Z,2.20
2022-10-28T10:08:05.141Z,2.20
2022-10-28T10:10:45.804Z,2.70
2022-10-28T10:13:17.878Z,2.30
2022-10-28T10:15:51.906Z,2.20
2022-10-28T10:18:27.340Z,2.30
2022-10-28T10:21:00.823Z,2.50
2022-10-28T10:23:31.048Z,2.00
2022-10-28T10:26:09.719Z,2.40
2022-10-28T10:28:48.051Z,2.20
2022-10-28T10:31:24.249Z,2.00
2022-10-28T10:33:55.809Z,2.60
2022-10-28T10:36:28.858Z,2.90
2022-10-28T10:38:59.559Z,2.90
2022-10-28T10:41:44.537Z,2.20
2022-10-28T10:44:21.749Z,2.30
2022-10-28T10:46:53.330Z,2.50
2022-10-28T10:49:21.509Z,2.20
2022-10-28T10:51:57.269Z,2.20
2022-10-28T10:54:27.594Z,2.60
2022-10-28T10:57:26.938Z,2.60
2022-10-28T10:59:57.213Z,3.00
2022-10-28T11:02:32.655Z,3.00
2022-10-28T11:05:07.946Z,2.50
2022-10-28T11:07:40.787Z,2.40
2022-10-28T11:10:29.519Z,2.40
2022-10-28T11:13:04.369Z,2.00
2022-10-28T11:15:33.367Z,2.30
2022-10-28T11:18:04.790Z,2.20
2022-10-28T11:20:47.334Z,2.30
2022-10-28T11:23:35.543Z,2.30
2022-10-28T11:26:08.863Z,2.00
2022-10-28T11:29:01.922Z,2.40
2022-10-28T11:31:46.315Z,2.10
2022-10-28T11:34:26.650Z,2.10
2022-10-28T11:37:19.799Z,2.00
2022-10-28T11:40:13.691Z,2.70
2022-10-28T11:43:03.659Z,2.30
2022-10-28T11:45:44.743Z,2.10
2022-10-28T11:48:27.445Z,2.30
2022-10-28T11:51:18.773Z,2.10
2022-10-28T11:54:05.590Z,2.80
2022-10-28T11:56:39.481Z,3.20
2022-10-28T11:59:46.676Z,2.60
2022-10-28T12:02:33.754Z,2.30
2022-10-28T12:05:05.884Z,2.40
2022-10-28T12:08:04.542Z,2.80
2022-10-28T12:10:58.516Z,2.50
2022-10-28T12:14:06.266Z,2.30
2022-10-28T12:16:50.397Z,2.70
2022-10-28T12:19:28.269Z,2.30
2022-10-28T12:22:29.118Z,2.40
2022-10-28T12:25:02.702Z,2.50
2022-10-28T12:27:36.529Z,2.60
2022-10-28T12:30:21.494Z,2.60
2022-10-28T12:33:04.309Z,2.80
2022-10-28T12:35:37.612Z,2.50
2022-10-28T12:38:20.287Z,2.10
2022-10-28T12:40:57.273Z,2.30
2022-10-28T12:43:39.705Z,2.40
2022-10-28T12:46:18.830Z,2.30
2022-10-28T12:48:58.865Z,2.50
2022-10-28T12:51:41.602Z,2.10
2022-10-28T12:54:23.195Z,1.90
2022-10-28T12:57:02.121Z,2.00
2022-10-28T12:59:39.092Z,2.50
2022-10-28T13:02:17.578Z,1.90
2022-10-28T13:04:45.890Z,2.40
2022-10-28T13:07:23.195Z,2.10
2022-10-28T13:10:30.769Z,2.10
2022-10-28T13:13:20.459Z,2.00
2022-10-28T13:16:19.866Z,2.20
2022-10-28T13:19:16.813Z,2.00
2022-10-28T13:22:08.025Z,1.90
2022-10-28T13:24:51.065Z,1.90
2022-10-28T13:27:20.435Z,1.90
2022-10-28T13:29:55.206Z,1.70
2022-10-28T13:32:37.513Z,2.30
2022-10-28T13:35:28.277Z,1.90
2022-10-28T13:37:57.871Z,2.00
2022-10-28T13:40:32.213Z,2.00
2022-10-28T13:43:02.017Z,2.20
2022-10-28T13:45:52.253Z,2.20
2022-10-28T13:48:29.604Z,1.90
2022-10-28T13:51:10.072Z,2.10
2022-10-28T13:53:47.965Z,2.10
2022-10-28T13:56:25.762Z,1.90
2022-10-28T13:58:58.244Z,1.90
2022-10-28T14:01:37.761Z,2.10
2022-10-28T14:04:19.895Z,2.00
2022-10-28T14:06:48.574Z,2.20
2022-10-28T14:09:28.005Z,2.20
2022-10-28T14:12:18.745Z,2.50
2022-10-28T14:15:07.159Z,2.50
2022-10-28T14:17:45.369Z,2.30
2022-10-28T14:20:22.559Z,2.10
2022-10-28T14:22:54.607Z,2.20
2022-10-28T14:25:41.850Z,2.20
2022-10-28T14:28:32.357Z,2.30
2022-10-28T14:31:10.366Z,2.90
2022-10-28T14:33:42.287Z,2.90
2022-10-28T14:36:20.119Z,3.70
2022-10-28T14:39:03.747Z,3.80
2022-10-28T14:42:09.515Z,2.70
2022-10-28T14:45:05.531Z,2.20
2022-10-28T14:48:01.752Z,2.20
2022-10-28T14:50:51.743Z,2.30
2022-10-28T14:53:30.469Z,2.70
2022-10-28T14:56:06.364Z,1.80
2022-10-28T14:58:39.283Z,2.40
2022-10-28T15:01:16.681Z,2.10
2022-10-28T15:03:51.212Z,2.50
2022-10-28T15:06:39.525Z,2.40
2022-10-28T15:09:19.210Z,2.30
2022-10-28T15:11:56.082Z,3.00
2022-10-28T15:14:27.947Z,2.90
2022-10-28T15:16:56.516Z,2.70
2022-10-28T15:19:29.423Z,2.50
2022-10-28T15:22:20.696Z,2.90
2022-10-28T15:24:57.058Z,3.20
2022-10-28T15:27:28.933Z,3.50
2022-10-28T15:29:58.682Z,3.50
2022-10-28T15:32:26.985Z,3.80
2022-10-28T15:34:55.543Z,3.40
2022-10-28T15:37:30.350Z,2.70
2022-10-28T15:40:19.935Z,3.20
2022-10-28T15:42:59.440Z,3.00
2022-10-28T15:45:38.318Z,3.00
2022-10-28T15:48:20.196Z,2.60
2022-10-28T15:51:12.175Z,3.30
2022-10-28T15:53:45.729Z,3.30
2022-10-28T15:56:14.717Z,2.70
2022-10-28T15:58:49.336Z,3.60
2022-10-28T16:01:40.990Z,3.00
2022-10-28T16:04:19.792Z,3.50
2022-10-28T16:06:49.905Z,4.30
2022-10-28T16:09:35.187Z,4.10
2022-10-28T16:12:15.317Z,3.30
2022-10-28T16:14:54.481Z,3.70
2022-10-28T16:17:33.697Z,3.00
2022-10-28T16:20:17.062Z,2.70
2022-10-28T16:22:49.178Z,3.30
2022-10-28T16:25:20.906Z,4.20
2022-10-28T16:27:50.600Z,3.30
2022-10-28T16:30:20.010Z,3.70
2022-10-28T16:32:51.460Z,4.00
2022-10-28T16:35:24.587Z,3.50
2022-10-28T16:37:55.541Z,4.70
2022-10-28T16:40:50.565Z,4.00
2022-10-28T16:43:19.844Z,4.30
2022-10-28T16:45:49.944Z,3.40
2022-10-28T16:48:20.028Z,3.30
2022-10-28T16:50:51.591Z,3.20
2022-10-28T16:53:20.372Z,3.10
2022-10-28T16:55:49.158Z,3.00
2022-10-28T16:58:21.887Z,3.40
2022-10-28T17:00:53.974Z,3.80
2022-10-28T17:03:26.437Z,3.50
2022-10-28T17:05:59.969Z,3.30
2022-10-28T17:08:49.392Z,4.20
2022-10-28T17:11:19.518Z,3.70
2022-10-28T17:13:48.991Z,3.60
2022-10-28T17:16:17.460Z,4.00
2022-10-28T17:18:47.682Z,4.30
2022-10-28T17:21:16.566Z,3.50
2022-10-28T17:23:46.389Z,3.50
2022-10-28T17:26:15.441Z,4.00
2022-10-28T17:28:44.696Z,3.40
2022-10-28T17:31:19.179Z,3.20
2022-10-28T17:33:55.966Z,3.20
2022-10-28T17:36:26.507Z,3.00
2022-10-28T17:38:56.768Z,3.50
2022-10-28T17:41:29.467Z,3.70
2022-10-28T17:44:00.696Z,3.10
2022-10-28T17:46:30.753Z,3.30
2022-10-28T17:49:08.640Z,4.70
2022-10-28T17:51:39.598Z,3.80
2022-10-28T17:54:10.015Z,3.50
2022-10-28T17:56:40.690Z,3.70
2022-10-28T17:59:10.979Z,3.20
2022-10-28T18:01:41.583Z,2.80
2022-10-28T18:04:12.671Z,3.20
2022-10-28T18:06:41.672Z,3.20
2022-10-28T18:09:12.995Z,2.80
2022-10-28T18:11:43.147Z,3.00
2022-10-28T18:14:12.629Z,3.10
2022-10-28T18:16:42.062Z,3.10
2022-10-28T18:19:14.212Z,2.50
2022-10-28T18:21:45.266Z,3.00
2022-10-28T18:24:14.050Z,2.90
2022-10-28T18:26:43.738Z,3.00
2022-10-28T18:29:14.287Z,3.20
2022-10-28T18:31:44.585Z,3.10
2022-10-28T18:34:13.140Z,2.90
2022-10-28T18:36:42.841Z,3.90
2022-10-28T18:39:12.809Z,5.10
2022-10-28T18:41:43.462Z,4.20
2022-10-28T18:44:14.698Z,8.50
2022-10-28T18:46:48.519Z,4.80
2022-10-28T18:49:18.069Z,7.70
2022-10-28T18:51:46.897Z,8.90
2022-10-28T18:54:15.786Z,10.30
2022-10-28T18:56:47.827Z,8.40
2022-10-28T18:59:17.761Z,8.20
2022-10-28T19:01:47.363Z,7.70
2022-10-28T19:04:16.511Z,6.60
2022-10-28T19:06:47.484Z,5.60
2022-10-28T19:09:16.646Z,4.60
2022-10-28T19:11:45.392Z,4.30
2022-10-28T19:14:14.084Z,4.70
2022-10-28T19:16:43.707Z,6.80
2022-10-28T19:19:12.366Z,9.40
2022-10-28T19:21:40.850Z,5.80
2022-10-28T19:24:09.193Z,4.60
2022-10-28T19:26:39.841Z,6.40
2022-10-28T19:29:09.057Z,12.80
2022-10-28T19:31:40.381Z,13.70
2022-10-28T19:34:11.051Z,14.00
2022-10-28T19:36:39.818Z,10.50
2022-10-28T19:39:09.163Z,7.80
2022-10-28T19:41:39.022Z,6.40
2022-10-28T19:44:08.717Z,4.20
2022-10-28T19:46:38.315Z,3.90
2022-10-28T19:49:08.601Z,3.90
2022-10-28T19:51:40.860Z,3.70
2022-10-28T19:54:15.372Z,3.50
2022-10-28T19:56:45.700Z,4.10
2022-10-28T19:59:14.695Z,3.50
2022-10-28T20:01:44.243Z,3.60
2022-10-28T20:04:13.176Z,3.60
2022-10-28T20:06:41.885Z,3.80
2022-10-28T20:09:10.953Z,3.20
2022-10-28T20:11:40.895Z,3.70
2022-10-28T20:14:12.163Z,3.80
2022-10-28T20:16:44.283Z,4.80
2022-10-28T20:19:14.265Z,3.40
2022-10-28T20:21:45.878Z,3.50
2022-10-28T20:24:17.878Z,3.30
2022-10-28T20:26:47.065Z,3.00
2022-10-28T20:29:16.034Z,3.10
2022-10-28T20:31:45.552Z,3.20
2022-10-28T20:34:15.141Z,3.60
2022-10-28T20:36:46.605Z,3.30
2022-10-28T20:39:17.408Z,3.40
2022-10-28T20:41:47.409Z,3.90
2022-10-28T20:44:17.029Z,4.30
2022-10-28T20:46:48.432Z,4.60
2022-10-28T20:49:18.004Z,4.00
2022-10-28T20:51:46.787Z,3.40
2022-10-28T20:54:16.336Z,3.30
2022-10-28T20:56:45.605Z,3.50
2022-10-28T20:59:15.003Z,3.90
2022-10-28T21:01:43.882Z,4.20
2022-10-28T21:04:12.847Z,4.90
2022-10-28T21:06:42.036Z,5.20
2022-10-28T21:09:12.029Z,5.30
2022-10-28T21:11:41.087Z,5.60
2022-10-28T21:14:09.958Z,4.10
2022-10-28T21:16:38.851Z,5.30
2022-10-28T21:19:07.947Z,3.80
2022-10-28T21:21:36.938Z,3.80
2022-10-28T21:24:06.575Z,3.90
2022-10-28T21:26:35.129Z,4.10
2022-10-28T21:29:03.327Z,4.30
2022-10-28T21:31:31.487Z,4.50
2022-10-28T21:34:01.826Z,4.10
2022-10-28T21:36:32.637Z,4.30
2022-10-28T21:39:01.019Z,3.70
2022-10-28T21:41:29.610Z,4.10
2022-10-28T21:43:58.397Z,4.70
2022-10-28T21:46:28.313Z,4.90
2022-10-28T21:48:57.011Z,4.20
2022-10-28T21:51:25.585Z,4.40
2022-10-28T21:53:53.716Z,4.10
2022-10-28T21:56:21.812Z,3.90
2022-10-28T21:58:51.429Z,4.10
2022-10-28T22:01:23.362Z,3.90
2022-10-28T22:03:55.389Z,4.00
2022-10-28T22:06:27.180Z,3.10
2022-10-28T22:08:56.218Z,3.30
2022-10-28T22:11:24.898Z,3.20
2022-10-28T22:13:58.763Z,3.50
2022-10-28T22:16:29.416Z,3.70
2022-10-28T22:18:59.770Z,3.20
2022-10-28T22:21:32.049Z,3.20
2022-10-28T22:24:01.232Z,3.30
2022-10-28T22:26:30.709Z,3.60
2022-10-28T22:29:00.426Z,3.40
2022-10-28T22:31:31.621Z,2.80
2022-10-28T22:34:00.593Z,2.90
2022-10-28T22:36:30.606Z,3.20
2022-10-28T22:38:59.595Z,3.40
2022-10-28T22:41:30.712Z,3.90
2022-10-28T22:44:01.910Z,3.50
2022-10-28T22:46:34.615Z,3.00
2022-10-28T22:49:04.522Z,3.80
2022-10-28T22:51:33.655Z,3.20
2022-10-28T22:54:02.148Z,2.60
2022-10-28T22:56:30.640Z,2.90
2022-10-28T22:59:01.306Z,2.80
2022-10-28T23:01:33.869Z,3.10
2022-10-28T23:04:02.243Z,3.40
2022-10-28T23:06:30.526Z,3.20
2022-10-28T23:08:58.865Z,3.10
2022-10-28T23:11:27.487Z,2.80
2022-10-28T23:13:56.241Z,3.50
2022-10-28T23:16:24.729Z,2.90
2022-10-28T23:18:53.614Z,3.10
2022-10-28T23:21:24.449Z,3.10
2022-10-28T23:23:54.741Z,3.00
2022-10-28T23:26:23.770Z,3.10
2022-10-28T23:28:57.992Z,3.40
2022-10-28T23:31:27.085Z,3.70
2022-10-28T23:33:55.875Z,3.30
2022-10-28T23:36:24.151Z,3.00
2022-10-28T23:38:52.740Z,2.80
2022-10-28T23:41:21.245Z,3.30
2022-10-28T23:43:49.711Z,3.00
2022-10-28T23:46:18.483Z,3.50
2022-10-28T23:48:46.561Z,3.00
2022-10-28T23:51:14.795Z,3.10
2022-10-28T23:53:42.878Z,3.10
2022-10-28T23:56:10.884Z,3.60
2022-10-28T23:58:38.942Z,3.10
